Time;durP1;ratioP1;P1;durP2;ratioP2;P2;SDS_P1;SDS_P2;PMS_P1;PMS_P2;Temp;Humidity;BMP_temperature;BMP_pressure;BME280_temperature;BME280_humidity;BME280_pressure;Samples;Min_cycle;Max_cycle;Signal;HPM_P1;HPM_P2
2022/10/09 00:00:49;;;;;;;212.65;68.07;;;;;;;4.33;100.00;99751.50;1649520;87;20932;-75
2022/10/09 00:03:16;;;;;;;195.87;63.58;;;;;;;4.35;100.00;99756.13;1653993;85;21503;-75
2022/10/09 00:05:44;;;;;;;192.30;63.15;;;;;;;4.33;100.00;99752.86;1666155;85;21425;-75
2022/10/09 00:08:10;;;;;;;199.20;64.45;;;;;;;4.31;100.00;99751.77;1666715;85;21514;-76
2022/10/09 00:10:42;;;;;;;227.22;70.55;;;;;;;4.33;100.00;99754.76;1666721;86;21535;-75
2022/10/09 00:13:09;;;;;;;235.88;74.70;;;;;;;4.30;100.00;99750.14;1666785;85;20908;-76
2022/10/09 00:15:42;;;;;;;296.10;93.78;;;;;;;4.27;100.00;99751.22;1666842;86;21321;-75
2022/10/09 00:18:12;;;;;;;211.45;69.77;;;;;;;4.22;100.00;99753.92;1666954;86;21515;-75
2022/10/09 00:20:41;;;;;;;149.62;48.85;;;;;;;4.20;100.00;99757.45;1666868;86;20964;-76
2022/10/09 00:23:07;;;;;;;80.38;28.07;;;;;;;4.15;100.00;99752.82;1666973;86;20956;-75
2022/10/09 00:25:38;;;;;;;106.70;35.92;;;;;;;4.08;100.00;99750.91;1666840;85;20897;-76
2022/10/09 00:28:04;;;;;;;63.33;22.02;;;;;;;4.00;100.00;99741.13;1663118;84;21262;-76
2022/10/09 00:30:31;;;;;;;77.42;26.57;;;;;;;3.99;100.00;99734.87;1664813;86;20992;-75
2022/10/09 00:32:58;;;;;;;62.85;23.05;;;;;;;3.99;100.00;99734.87;1685427;84;21006;-76
2022/10/09 00:35:24;;;;;;;56.50;20.75;;;;;;;3.89;100.00;99729.42;1700768;84;21492;-75
2022/10/09 00:37:51;;;;;;;55.73;20.17;;;;;;;3.89;100.00;99729.42;1700809;84;20948;-76
2022/10/09 00:40:19;;;;;;;56.30;20.35;;;;;;;3.86;100.00;99728.59;1700823;84;20991;-75
2022/10/09 00:42:47;;;;;;;61.55;22.55;;;;;;;3.83;100.00;99726.41;1700702;84;20892;-76
2022/10/09 00:45:19;;;;;;;93.47;33.00;;;;;;;3.81;100.00;99726.67;1680686;84;20932;-75
2022/10/09 00:47:48;;;;;;;101.18;35.88;;;;;;;3.79;100.00;99726.13;1700689;84;20939;-74
2022/10/09 00:50:26;;;;;;;102.95;38.73;;;;;;;3.79;100.00;99718.52;1680834;84;20940;-75
2022/10/09 00:52:56;;;;;;;146.20;52.45;;;;;;;3.79;100.00;99718.52;1675011;84;21268;-76
2022/10/09 00:55:22;;;;;;;171.05;61.08;;;;;;;3.79;100.00;99726.13;1667042;86;21005;-75
2022/10/09 00:57:50;;;;;;;199.97;76.30;;;;;;;3.78;100.00;99713.63;1673405;84;20938;-75
2022/10/09 01:00:18;;;;;;;227.97;84.67;;;;;;;3.79;100.00;99713.09;1687711;84;20964;-75
2022/10/09 01:02:45;;;;;;;191.10;72.65;;;;;;;3.79;100.00;99712.55;1698623;84;20873;-75
2022/10/09 01:05:11;;;;;;;210.20;81.65;;;;;;;3.79;100.00;99711.73;1693153;84;21090;-75
2022/10/09 01:08:04;;;;;;;184.22;74.62;;;;;;;3.78;100.00;99712.81;1684293;84;20984;-75
2022/10/09 01:10:59;;;;;;;160.75;68.35;;;;;;;3.75;100.00;99711.45;1689725;84;25135;-75
2022/10/09 01:13:39;;;;;;;115.65;49.55;;;;;;;3.74;100.00;99708.45;1686848;84;21028;-76
2022/10/09 01:16:16;;;;;;;100.10;44.75;;;;;;;3.73;100.00;99702.75;1646539;84;20973;-75
2022/10/09 01:19:05;;;;;;;91.40;39.95;;;;;;;3.72;100.00;99707.91;1687118;84;20941;-75
2022/10/09 01:22:00;;;;;;;58.48;26.95;;;;;;;3.71;100.00;99706.28;1690203;84;20985;-75
2022/10/09 01:24:37;;;;;;;49.00;24.23;;;;;;;3.68;100.00;99697.30;1666069;83;20896;-75
2022/10/09 01:27:21;;;;;;;53.73;27.98;;;;;;;3.65;100.00;99704.63;1656161;86;20955;-75
2022/10/09 01:29:57;;;;;;;41.98;21.55;;;;;;;3.62;100.00;99705.97;1653571;85;21581;-74
2022/10/09 01:32:28;;;;;;;43.40;21.45;;;;;;;3.59;100.00;99704.33;1664161;84;21110;-75
2022/10/09 01:34:55;;;;;;;37.05;18.50;;;;;;;3.54;100.00;99709.20;1696027;84;21448;-75
2022/10/09 01:37:21;;;;;;;37.50;16.73;;;;;;;3.52;100.00;99701.05;1696504;84;20984;-74
2022/10/09 01:39:47;;;;;;;30.25;16.35;;;;;;;3.49;100.00;99705.65;1696218;84;20897;-74
2022/10/09 01:42:14;;;;;;;27.98;14.13;;;;;;;3.47;100.00;99703.73;1682542;84;20905;-75
2022/10/09 01:44:40;;;;;;;31.57;13.45;;;;;;;3.42;100.00;99699.14;1661484;85;21747;-74
2022/10/09 01:47:14;;;;;;;25.10;11.93;;;;;;;3.39;100.00;99700.20;1649438;86;21533;-74
2022/10/09 01:49:55;;;;;;;21.85;11.95;;;;;;;3.36;100.00;99693.95;1652989;85;20936;-75
2022/10/09 01:52:40;;;;;;;21.77;10.80;;;;;;;3.33;100.00;99695.84;1660311;85;20944;-75
2022/10/09 01:55:39;;;;;;;22.73;11.00;;;;;;;3.31;100.00;99698.81;1658977;84;20955;-75
2022/10/09 01:58:24;;;;;;;19.62;9.40;;;;;;;3.30;100.00;99693.92;1686155;84;21181;-74
2022/10/09 02:01:08;;;;;;;14.75;8.10;;;;;;;3.30;100.00;99698.53;1656594;85;21098;-75
2022/10/09 02:03:35;;;;;;;17.80;9.45;;;;;;;3.29;100.00;99704.50;1658707;86;21059;-75
2022/10/09 02:06:03;;;;;;;19.90;9.65;;;;;;;3.25;100.00;99695.80;1659176;86;21031;-75
2022/10/09 02:08:31;;;;;;;16.97;9.05;;;;;;;3.22;100.00;99695.78;1632297;87;20924;-74
2022/10/09 02:11:01;;;;;;;15.63;8.20;;;;;;;3.21;100.00;99689.27;1632197;87;21587;-75
2022/10/09 02:13:29;;;;;;;16.87;8.75;;;;;;;3.18;100.00;99686.54;1641825;86;21382;-75
2022/10/09 02:16:20;;;;;;;18.37;9.43;;;;;;;3.18;100.00;99690.61;1654012;86;21041;-75
2022/10/09 02:19:02;;;;;;;19.55;9.25;;;;;;;3.17;100.00;99692.23;1654250;86;20947;-74
2022/10/09 02:22:01;;;;;;;15.90;9.03;;;;;;;3.14;100.00;99696.28;1647145;86;21547;-74
2022/10/09 02:24:28;;;;;;;20.77;10.28;;;;;;;3.14;100.00;99692.22;1625352;86;21304;-74
2022/10/09 02:26:56;;;;;;;19.50;10.63;;;;;;;3.14;100.00;99692.75;1666141;85;20933;-74
2022/10/09 02:29:22;;;;;;;20.77;10.13;;;;;;;3.12;100.00;99697.09;1664732;86;20989;-74
2022/10/09 02:31:49;;;;;;;18.95;10.43;;;;;;;3.09;100.00;99698.97;1664700;86;20988;-74
2022/10/09 02:34:18;;;;;;;19.40;10.38;;;;;;;3.06;100.00;99696.78;1664675;86;21415;-74
2022/10/09 02:36:46;;;;;;;22.85;11.57;;;;;;;3.03;100.00;99695.13;1664921;86;21543;-74
2022/10/09 02:39:13;;;;;;;18.15;10.40;;;;;;;3.01;100.00;99695.93;1664707;86;21461;-74
2022/10/09 02:41:40;;;;;;;22.25;11.00;;;;;;;2.98;100.00;99694.02;1664757;86;20942;-75
2022/10/09 02:44:07;;;;;;;24.65;10.30;;;;;;;2.95;100.00;99685.59;1664538;86;21456;-75
2022/10/09 02:46:34;;;;;;;20.65;10.72;;;;;;;2.94;100.00;99690.73;1664598;86;20957;-75
2022/10/09 02:49:00;;;;;;;18.73;10.15;;;;;;;2.94;100.00;99685.31;1664642;86;21561;-75
2022/10/09 02:51:27;;;;;;;21.20;11.43;;;;;;;2.93;100.00;99685.04;1664747;86;21594;-75
2022/10/09 02:53:54;;;;;;;20.43;11.25;;;;;;;2.93;100.00;99685.04;1664737;86;20937;-75
2022/10/09 02:56:22;;;;;;;21.85;12.07;;;;;;;2.94;100.00;99681.25;1664876;85;20941;-75
2022/10/09 02:58:48;;;;;;;25.70;11.63;;;;;;;2.96;100.00;99679.09;1664464;85;21019;-75
2022/10/09 03:01:16;;;;;;;23.02;12.28;;;;;;;2.96;100.00;99685.33;1664628;86;21620;-76
2022/10/09 03:03:42;;;;;;;32.20;13.38;;;;;;;2.96;100.00;99683.97;1665005;86;20905;-75
2022/10/09 03:06:13;;;;;;;35.30;16.62;;;;;;;2.98;100.00;99678.29;1664293;86;20912;-76
2022/10/09 03:08:43;;;;;;;31.80;15.80;;;;;;;2.98;100.00;99678.29;1664370;86;20953;-75
2022/10/09 03:11:13;;;;;;;41.70;20.08;;;;;;;2.99;100.00;99675.31;1664514;86;20948;-75
2022/10/09 03:13:40;;;;;;;38.48;20.02;;;;;;;3.00;100.00;99681.55;1664777;85;21240;-75
2022/10/09 03:16:13;;;;;;;41.92;20.05;;;;;;;3.00;100.00;99670.70;1664515;86;20965;-75
2022/10/09 03:18:42;;;;;;;42.15;20.50;;;;;;;3.00;100.00;99670.70;1665029;85;20964;-76
2022/10/09 03:21:12;;;;;;;34.65;18.23;;;;;;;2.99;100.00;99670.43;1664641;86;21003;-75
2022/10/09 03:23:39;;;;;;;44.20;19.98;;;;;;;2.96;100.00;99673.13;1664188;86;20967;-75
2022/10/09 03:26:10;;;;;;;40.23;19.07;;;;;;;2.95;100.00;99674.75;1665531;85;20901;-75
2022/10/09 03:28:41;;;;;;;34.53;16.48;;;;;;;2.93;100.00;99664.70;1645422;86;20997;-76
2022/10/09 03:31:07;;;;;;;31.85;13.90;;;;;;;2.91;100.00;99666.32;1664573;86;20913;-75
2022/10/09 03:33:36;;;;;;;28.45;14.80;;;;;;;2.89;100.00;99666.30;1664652;86;20893;-74
2022/10/09 03:36:03;;;;;;;36.42;15.95;;;;;;;2.86;100.00;99669.57;1665240;86;20941;-74
2022/10/09 03:38:29;;;;;;;32.70;17.37;;;;;;;2.84;100.00;99666.30;1665313;85;21247;-75
2022/10/09 03:40:58;;;;;;;36.85;17.32;;;;;;;2.83;100.00;99666.02;1664764;85;20945;-74
2022/10/09 03:43:25;;;;;;;36.05;17.42;;;;;;;2.79;100.00;99660.84;1665279;85;21008;-74
2022/10/09 03:45:51;;;;;;;37.50;17.73;;;;;;;2.76;100.00;99664.08;1664485;86;20984;-74
2022/10/09 03:48:18;;;;;;;33.30;17.67;;;;;;;2.73;100.00;99667.31;1664913;86;21031;-74
2022/10/09 03:50:45;;;;;;;31.23;15.58;;;;;;;2.71;100.00;99668.11;1664868;86;21805;-74
2022/10/09 03:53:11;;;;;;;35.50;15.50;;;;;;;2.70;100.00;99665.13;1664798;86;21048;-74
2022/10/09 03:55:39;;;;;;;30.92;15.45;;;;;;;2.65;100.00;99666.72;1664528;86;21492;-74
2022/10/09 03:58:08;;;;;;;25.77;14.07;;;;;;;2.63;100.00;99664.81;1664908;86;21029;-74
2022/10/09 04:00:35;;;;;;;29.42;13.55;;;;;;;2.61;100.00;99664.25;1664861;86;21468;-74
2022/10/09 04:03:02;;;;;;;21.90;12.07;;;;;;;2.61;100.00;99657.48;1664688;86;21480;-74
2022/10/09 04:05:32;;;;;;;24.87;11.73;;;;;;;2.59;100.00;99656.11;1664920;86;21027;-75
2022/10/09 04:08:00;;;;;;;23.20;12.25;;;;;;;2.58;100.00;99659.36;1664349;86;20961;-74
2022/10/09 04:10:26;;;;;;;24.77;11.40;;;;;;;2.58;100.00;99662.06;1665372;85;21492;-75
2022/10/09 04:12:53;;;;;;;24.23;11.10;;;;;;;2.59;100.00;99660.98;1664512;86;20987;-74
2022/10/09 04:15:21;;;;;;;18.57;10.30;;;;;;;2.58;100.00;99666.67;1664751;86;20992;-74
2022/10/09 04:17:48;;;;;;;22.77;10.60;;;;;;;2.55;100.00;99669.36;1686107;84;21409;-75
2022/10/09 04:20:14;;;;;;;20.20;10.15;;;;;;;2.55;100.00;99665.30;1696969;84;21043;-74
2022/10/09 04:22:42;;;;;;;18.80;10.32;;;;;;;2.57;100.00;99663.14;1698054;83;21019;-75
2022/10/09 04:25:08;;;;;;;22.40;10.85;;;;;;;2.59;100.00;99661.53;1697601;83;21042;-75
2022/10/09 04:27:36;;;;;;;23.55;10.90;;;;;;;2.60;100.00;99669.40;1697072;84;21072;-75
2022/10/09 04:30:04;;;;;;;25.32;11.15;;;;;;;2.62;100.00;99667.25;1697484;83;21101;-75
2022/10/09 04:32:31;;;;;;;24.02;11.68;;;;;;;2.69;100.00;99658.07;1696939;83;20940;-74
2022/10/09 04:34:58;;;;;;;20.62;10.40;;;;;;;2.69;100.00;99658.07;1687373;82;20909;-75
2022/10/09 04:37:24;;;;;;;19.80;9.65;;;;;;;2.73;100.00;99663.25;1677905;83;21476;-74
2022/10/09 04:39:50;;;;;;;19.92;10.78;;;;;;;2.79;100.00;99657.59;1664908;86;21048;-75
2022/10/09 04:42:17;;;;;;;25.48;11.25;;;;;;;2.87;100.00;99657.64;1681099;83;21421;-76
2022/10/09 04:44:43;;;;;;;27.60;12.23;;;;;;;2.95;100.00;99653.87;1698327;83;20936;-76
2022/10/09 04:47:10;;;;;;;25.12;12.00;;;;;;;3.06;100.00;99655.28;1697538;83;21067;-77
2022/10/09 04:49:36;;;;;;;20.12;11.30;;;;;;;3.18;100.00;99659.95;1697408;83;20849;-76
2022/10/09 04:52:03;;;;;;;27.58;12.68;;;;;;;3.29;100.00;99668.41;1697795;83;21786;-75
2022/10/09 04:54:30;;;;;;;25.40;12.82;;;;;;;3.49;100.00;99679.86;1699336;83;20929;-81
2022/10/09 04:56:57;;;;;;;21.50;11.75;;;;;;;3.49;100.00;99679.86;1697664;83;20980;-72
2022/10/09 04:59:23;;;;;;;26.57;11.40;;;;;;;3.60;100.00;99672.03;1698975;83;20953;-76
2022/10/09 05:01:50;;;;;;;26.23;11.00;;;;;;;3.71;100.00;99676.41;1699234;83;20948;-76
2022/10/09 05:04:16;;;;;;;26.90;12.13;;;;;;;3.82;100.00;99677.25;1699026;83;21544;-75
2022/10/09 05:06:43;;;;;;;21.15;11.30;;;;;;;3.91;100.00;99682.44;1698280;84;20976;-75
2022/10/09 05:09:09;;;;;;;21.37;12.05;;;;;;;4.02;100.00;99683.27;1698526;84;21519;-75
2022/10/09 05:11:36;;;;;;;27.82;12.40;;;;;;;4.12;100.00;99683.26;1699310;83;20932;-73
2022/10/09 05:14:04;;;;;;;27.25;12.60;;;;;;;4.37;100.00;99687.36;1690411;84;21396;-78
2022/10/09 05:16:31;;;;;;;25.10;12.35;;;;;;;4.51;100.00;99691.17;1695501;84;21104;-75
2022/10/09 05:18:59;;;;;;;27.15;12.82;;;;;;;4.51;100.00;99691.17;1697101;84;22266;-75
2022/10/09 05:21:26;;;;;;;25.02;13.90;;;;;;;4.71;100.00;99698.47;1697864;84;20987;-73
2022/10/09 05:23:56;;;;;;;26.55;13.32;;;;;;;4.96;100.00;99696.27;1697603;84;21069;-75
2022/10/09 05:26:24;;;;;;;28.75;13.25;;;;;;;4.96;100.00;99696.27;1696422;83;21083;-77
2022/10/09 05:28:51;;;;;;;20.15;11.20;;;;;;;5.03;100.00;99691.90;1676851;84;21525;-76
2022/10/09 05:31:22;;;;;;;22.07;12.70;;;;;;;5.10;100.00;99686.98;1697464;84;20999;-77
2022/10/09 05:33:49;;;;;;;24.75;13.75;;;;;;;5.13;100.00;99697.32;1697666;84;21539;-76
2022/10/09 05:36:16;;;;;;;22.87;13.65;;;;;;;5.20;100.00;99684.23;1698128;84;21060;-77
2022/10/09 05:38:42;;;;;;;31.25;14.73;;;;;;;5.29;100.00;99688.81;1698035;83;21569;-77
2022/10/09 05:41:11;;;;;;;23.07;14.05;;;;;;;5.39;100.00;99689.32;1698159;84;21139;-77
2022/10/09 05:43:41;;;;;;;26.87;14.20;;;;;;;5.50;100.00;99680.02;1698204;84;20917;-76
2022/10/09 05:46:11;;;;;;;32.45;17.75;;;;;;;5.62;100.00;99676.97;1698029;84;21012;-75
2022/10/09 05:48:42;;;;;;;43.23;22.60;;;;;;;5.73;100.00;99676.38;1698417;83;21515;-78
2022/10/09 05:51:16;;;;;;;39.27;21.65;;;;;;;5.83;100.00;99683.92;1698296;84;21039;-78
2022/10/09 05:53:43;;;;;;;38.38;22.27;;;;;;;5.91;100.00;99681.18;1698096;84;21245;-77
2022/10/09 05:56:20;;;;;;;30.50;19.60;;;;;;;6.01;100.00;99683.84;1698267;84;21071;-79
2022/10/09 05:59:01;;;;;;;34.33;17.20;;;;;;;6.12;100.00;99688.69;1698006;83;20937;-79
2022/10/09 06:01:31;;;;;;;29.48;16.05;;;;;;;6.24;100.00;99690.51;1698401;84;20952;-78
2022/10/09 06:03:59;;;;;;;29.57;16.87;;;;;;;6.35;100.00;99683.08;1698023;84;21507;-80
2022/10/09 06:06:28;;;;;;;30.05;16.07;;;;;;;6.50;100.00;99689.74;1701725;84;21210;-77
2022/10/09 06:08:56;;;;;;;32.35;16.67;;;;;;;6.67;100.00;99687.97;1697961;84;21055;-78
2022/10/09 06:11:27;;;;;;;31.77;15.48;;;;;;;6.86;100.00;99691.61;1698113;83;20996;-78
2022/10/09 06:13:54;;;;;;;32.93;15.85;;;;;;;7.05;100.00;99695.77;1698358;83;20995;-81
2022/10/09 06:16:25;;;;;;;36.65;17.07;;;;;;;7.21;100.00;99699.41;1698032;84;21024;-78
2022/10/09 06:18:53;;;;;;;27.50;16.75;;;;;;;7.38;100.00;99692.67;1698383;84;21168;-83
2022/10/09 06:21:20;;;;;;;31.25;15.63;;;;;;;7.56;100.00;99695.98;1697985;84;21039;-83
2022/10/09 06:23:53;;;;;;;25.70;14.23;;;;;;;7.72;100.00;99696.05;1697959;84;21012;-75
2022/10/09 06:26:21;;;;;;;24.85;13.98;;;;;;;7.89;100.00;99695.56;1698152;84;21020;-73
2022/10/09 06:28:49;;;;;;;29.95;14.40;;;;;;;8.03;100.00;99687.45;1697996;84;21044;-75
2022/10/09 06:31:18;;;;;;;26.62;14.23;;;;;;;8.18;100.00;99693.48;1698316;84;20990;-74
2022/10/09 06:33:46;;;;;;;27.42;15.55;;;;;;;8.35;100.00;99700.38;1697947;83;21021;-74
2022/10/09 06:36:16;;;;;;;30.55;17.32;;;;;;;8.57;100.00;99695.91;1698128;83;21019;-74
2022/10/09 06:38:43;;;;;;;32.65;18.40;;;;;;;8.79;100.00;99694.43;1698249;84;21504;-75
2022/10/09 06:41:13;;;;;;;32.17;17.02;;;;;;;9.01;100.00;99699.25;1698170;83;21051;-83
2022/10/09 06:43:40;;;;;;;23.47;15.70;;;;;;;9.37;100.00;99693.33;1698059;83;21259;-82
2022/10/09 06:46:10;;;;;;;27.73;14.75;;;;;;;10.04;100.00;99693.55;1698083;83;21554;-81
2022/10/09 06:48:39;;;;;;;29.52;14.40;;;;;;;10.84;100.00;99687.81;1698023;84;21565;-78
2022/10/09 06:51:13;;;;;;;24.02;13.83;;;;;;;11.65;100.00;99677.85;1696083;84;21067;-75
2022/10/09 06:53:43;;;;;;;25.48;13.25;;;;;;;12.38;100.00;99674.23;1693834;84;21511;-78
2022/10/09 06:56:10;;;;;;;19.90;10.85;;;;;;;13.06;100.00;99681.31;1693630;84;21257;-76
2022/10/09 06:58:40;;;;;;;21.97;11.22;;;;;;;13.70;98.42;99674.32;1696225;84;21012;-78
2022/10/09 07:01:15;;;;;;;24.82;13.48;;;;;;;14.23;92.06;99669.48;1696670;84;21068;-78
2022/10/09 07:03:43;;;;;;;29.05;12.60;;;;;;;14.71;89.10;99672.23;1691619;84;21092;-75
2022/10/09 07:06:18;;;;;;;23.42;13.38;;;;;;;15.19;86.59;99679.83;1698102;84;21534;-75
2022/10/09 07:08:51;;;;;;;21.93;12.47;;;;;;;15.68;82.29;99672.95;1663481;85;21116;-82
2022/10/09 07:11:21;;;;;;;18.65;10.15;;;;;;;16.13;79.34;99678.33;1697480;83;21003;-76
2022/10/09 07:13:54;;;;;;;20.17;9.93;;;;;;;16.47;76.73;99677.75;1685045;83;20996;-73
2022/10/09 07:16:25;;;;;;;17.80;9.43;;;;;;;16.69;74.82;99668.11;1697503;83;20992;-73
2022/10/09 07:18:54;;;;;;;18.27;9.60;;;;;;;16.95;73.64;99670.38;1698020;83;20983;-72
2022/10/09 07:21:22;;;;;;;14.00;9.20;;;;;;;17.22;71.51;99663.75;1697178;83;21102;-77
2022/10/09 07:23:49;;;;;;;15.80;9.00;;;;;;;17.48;68.75;99668.16;1698062;83;21027;-78
2022/10/09 07:26:20;;;;;;;15.98;8.68;;;;;;;17.70;68.17;99656.45;1697096;83;21425;-79
2022/10/09 07:28:47;;;;;;;24.00;9.50;;;;;;;17.90;66.42;99657.89;1696383;84;20901;-72
2022/10/09 07:31:14;;;;;;;44.98;9.70;;;;;;;18.05;65.28;99655.63;1697822;83;20865;-73
2022/10/09 07:33:42;;;;;;;16.23;9.05;;;;;;;18.23;64.76;99651.27;1697272;83;20937;-72
2022/10/09 07:36:09;;;;;;;17.80;8.78;;;;;;;18.47;63.30;99646.83;1696170;83;20933;-73
2022/10/09 07:38:38;;;;;;;24.95;9.55;;;;;;;18.55;61.44;99645.55;1697629;83;20865;-74
2022/10/09 07:41:08;;;;;;;17.98;9.58;;;;;;;18.56;61.71;99647.97;1697423;83;20948;-71
2022/10/09 07:43:38;;;;;;;17.30;8.55;;;;;;;18.67;61.54;99641.26;1697317;83;21413;-71
2022/10/09 07:46:07;;;;;;;25.05;12.00;;;;;;;18.89;60.57;99647.45;1697177;83;21150;-73
2022/10/09 07:48:34;;;;;;;16.27;10.03;;;;;;;19.12;58.64;99654.41;1697416;84;20893;-76
2022/10/09 07:51:14;;;;;;;15.90;8.48;;;;;;;19.27;58.22;99649.89;1697464;83;21514;-73
2022/10/09 07:53:42;;;;;;;12.20;7.62;;;;;;;19.42;57.38;99653.94;1696169;84;21063;-72
2022/10/09 07:56:18;;;;;;;14.60;7.22;;;;;;;19.60;56.20;99650.09;1670940;84;21017;-72
2022/10/09 07:58:51;;;;;;;9.78;5.47;;;;;;;19.76;55.17;99650.72;1670361;84;21158;-73
2022/10/09 08:01:18;;;;;;;9.78;5.12;;;;;;;19.80;54.66;99652.16;1685167;84;20964;-73
2022/10/09 08:03:47;;;;;;;14.70;5.17;;;;;;;19.95;54.05;99650.39;1699435;83;20924;-73
2022/10/09 08:06:13;;;;;;;11.73;5.42;;;;;;;20.09;54.29;99655.58;1698604;83;21404;-74
2022/10/09 08:08:40;;;;;;;13.03;4.80;;;;;;;20.35;53.01;99649.13;1698070;83;20917;-74
2022/10/09 08:11:10;;;;;;;13.50;4.90;;;;;;;20.54;51.72;99649.61;1697281;83;21151;-75
2022/10/09 08:13:38;;;;;;;12.20;4.87;;;;;;;20.92;50.07;99637.25;1646975;86;20948;-74
2022/10/09 08:16:06;;;;;;;6.42;4.35;;;;;;;20.92;50.07;99637.25;1646384;87;20906;-73
2022/10/09 08:18:33;;;;;;;10.25;4.37;;;;;;;20.97;49.96;99640.30;1646879;87;20976;-74
2022/10/09 08:21:05;;;;;;;8.08;4.12;;;;;;;21.04;50.11;99633.39;1646607;87;21000;-74
2022/10/09 08:23:32;;;;;;;7.12;3.98;;;;;;;21.11;49.05;99630.67;1646621;87;21202;-74
2022/10/09 08:26:00;;;;;;;14.50;3.72;;;;;;;21.08;48.28;99628.05;1646862;87;21607;-74
2022/10/09 08:28:28;;;;;;;13.30;4.70;;;;;;;21.10;48.63;99625.68;1646676;87;20873;-73
2022/10/09 08:30:55;;;;;;;9.50;3.33;;;;;;;21.25;46.97;99630.83;1646755;86;21163;-73
2022/10/09 08:33:23;;;;;;;10.93;4.58;;;;;;;21.28;47.22;99623.09;1648246;87;21519;-75
2022/10/09 08:35:50;;;;;;;12.33;4.17;;;;;;;21.40;46.36;99617.77;1647819;87;21162;-73
2022/10/09 08:38:18;;;;;;;7.05;3.30;;;;;;;21.50;45.79;99615.66;1650640;87;20912;-73
2022/10/09 08:40:55;;;;;;;12.30;3.70;;;;;;;21.70;43.63;99614.21;1667199;84;20952;-73
2022/10/09 08:43:30;;;;;;;5.47;3.10;;;;;;;21.54;43.25;99621.27;1618126;87;21000;-73
2022/10/09 08:45:59;;;;;;;5.97;3.52;;;;;;;21.44;44.55;99621.39;1663780;86;21001;-74
2022/10/09 08:48:27;;;;;;;10.58;3.67;;;;;;;21.62;43.67;99625.72;1625860;87;21826;-71
2022/10/09 08:50:53;;;;;;;12.15;3.87;;;;;;;21.66;43.74;99627.35;1621887;87;21000;-72
2022/10/09 08:53:38;;;;;;;8.35;3.87;;;;;;;21.81;43.89;99626.05;1622520;87;21016;-73
2022/10/09 08:56:05;;;;;;;8.68;3.40;;;;;;;22.00;43.56;99623.75;1621447;87;20940;-74
2022/10/09 08:58:33;;;;;;;8.80;3.80;;;;;;;22.29;42.54;99626.14;1621553;88;20976;-72
2022/10/09 09:01:31;;;;;;;8.55;3.62;;;;;;;22.50;42.04;99624.03;1630979;86;21053;-72
2022/10/09 09:04:31;;;;;;;6.92;3.05;;;;;;;22.62;42.17;99622.25;1640545;87;21413;-73
2022/10/09 09:07:20;;;;;;;6.30;3.27;;;;;;;22.81;41.47;99616.94;1663930;85;21487;-73
2022/10/09 09:10:16;;;;;;;7.33;3.47;;;;;;;23.03;41.63;99611.58;1639891;85;20897;-72
2022/10/09 09:13:09;;;;;;;129.87;12.98;;;;;;;23.35;40.85;99606.58;1683711;85;20974;-72
2022/10/09 09:15:49;;;;;;;7.05;3.02;;;;;;;23.33;40.29;99601.38;1682478;85;21226;-72
2022/10/09 09:18:46;;;;;;;7.28;3.52;;;;;;;23.09;39.98;99598.59;1683221;85;21018;-72
2022/10/09 09:21:17;;;;;;;11.85;3.60;;;;;;;22.86;40.13;99610.95;1682390;84;20956;-72
2022/10/09 09:23:46;;;;;;;6.28;3.12;;;;;;;22.56;40.71;99609.84;1640326;86;21036;-71
2022/10/09 09:26:15;;;;;;;12.70;3.70;;;;;;;22.42;41.36;99607.62;1638277;86;21012;-72
2022/10/09 09:28:42;;;;;;;5.65;2.87;;;;;;;22.57;41.95;99605.05;1637604;86;21142;-72
2022/10/09 09:31:27;;;;;;;6.37;3.25;;;;;;;22.67;41.58;99602.88;1637218;87;21511;-72
2022/10/09 09:34:15;;;;;;;4.50;2.98;;;;;;;22.88;41.10;99597.96;1637965;86;21519;-71
2022/10/09 09:36:58;;;;;;;8.70;2.62;;;;;;;23.21;39.78;99602.38;1638048;86;20960;-72
2022/10/09 09:39:30;;;;;;;172.40;14.18;;;;;;;23.12;39.04;99597.77;1637485;87;21052;-72
2022/10/09 09:42:11;;;;;;;143.90;15.05;;;;;;;22.73;39.81;99599.30;1638014;87;21165;-73
2022/10/09 09:44:49;;;;;;;6.60;2.95;;;;;;;22.39;40.55;99595.22;1638508;86;20869;-77
2022/10/09 09:47:27;;;;;;;6.97;2.90;;;;;;;22.17;41.07;99600.52;1636863;86;20966;-77
2022/10/09 09:49:59;;;;;;;9.53;2.58;;;;;;;22.06;42.08;99603.25;1637458;87;21476;-75
2022/10/09 09:52:29;;;;;;;6.20;2.60;;;;;;;21.99;42.29;99598.99;1637893;86;21540;-76
2022/10/09 09:54:57;;;;;;;13.83;2.87;;;;;;;21.91;42.70;99604.36;1637439;87;21840;-76
2022/10/09 09:57:35;;;;;;;13.48;3.20;;;;;;;21.74;42.88;99603.86;1637325;87;21051;-76
2022/10/09 10:00:22;;;;;;;7.17;2.67;;;;;;;21.47;42.69;99603.06;1640532;86;20992;-77
2022/10/09 10:02:49;;;;;;;8.08;2.90;;;;;;;21.02;44.00;99603.08;1663291;85;21491;-77
2022/10/09 10:05:25;;;;;;;6.58;2.92;;;;;;;20.58;45.23;99603.63;1600455;88;21487;-78
2022/10/09 10:07:52;;;;;;;3.75;2.50;;;;;;;20.17;45.46;99607.71;1637964;87;21110;-77
2022/10/09 10:10:22;;;;;;;9.25;3.30;;;;;;;19.74;46.51;99610.48;1677326;84;20999;-78
2022/10/09 10:12:55;;;;;;;9.53;3.72;;;;;;;19.37;47.34;99613.89;1672498;85;20925;-78
2022/10/09 10:15:29;;;;;;;11.22;3.25;;;;;;;19.09;48.70;99617.58;1672551;85;20965;-77
2022/10/09 10:18:07;;;;;;;8.28;3.58;;;;;;;18.85;49.87;99615.18;1688126;84;20961;-79
2022/10/09 10:20:46;;;;;;;8.48;3.42;;;;;;;18.58;50.10;99609.48;1699095;84;21233;-77
2022/10/09 10:23:33;;;;;;;194.67;17.30;;;;;;;18.39;51.80;99612.30;1699371;84;20983;-76
2022/10/09 10:26:04;;;;;;;228.70;19.37;;;;;;;18.28;52.47;99606.52;1699391;84;20976;-77
2022/10/09 10:28:38;;;;;;;10.60;3.80;;;;;;;18.19;53.28;99605.94;1699766;84;20952;-77
2022/10/09 10:31:07;;;;;;;8.60;3.20;;;;;;;18.15;53.12;99610.61;1699188;84;20900;-76
2022/10/09 10:33:33;;;;;;;6.42;2.77;;;;;;;18.26;53.87;99610.84;1699207;84;21001;-75
2022/10/09 10:36:01;;;;;;;14.03;2.98;;;;;;;18.74;52.93;99606.64;1702603;84;20889;-76
2022/10/09 10:38:54;;;;;;;8.85;2.92;;;;;;;19.29;52.14;99602.42;1699100;84;20892;-76
2022/10/09 10:41:32;;;;;;;7.28;2.50;;;;;;;19.68;51.21;99604.44;1699524;84;20971;-75
2022/10/09 10:44:59;;;;;;;5.80;3.08;;;;;;;20.23;51.54;99599.20;1699762;84;20999;-75
2022/10/09 10:47:28;;;;;;;9.33;3.33;;;;;;;20.89;48.29;99591.98;1657697;86;21143;-76
2022/10/09 10:49:55;;;;;;;6.78;3.20;;;;;;;21.43;44.17;99598.25;1657502;86;20865;-76
2022/10/09 10:52:48;;;;;;;13.85;3.12;;;;;;;21.70;44.97;99596.05;1679631;84;20944;-77
2022/10/09 10:55:38;;;;;;;17.57;4.58;;;;;;;22.13;45.41;99605.28;1700527;84;21432;-77
2022/10/09 10:58:29;;;;;;;19.45;6.03;;;;;;;22.54;44.87;99595.45;1700564;84;20932;-75
2022/10/09 11:01:16;;;;;;;14.58;6.83;;;;;;;22.63;44.95;99586.08;1700483;84;21215;-76
2022/10/09 11:03:48;;;;;;;21.97;6.70;;;;;;;22.36;45.84;99599.61;1685604;84;21027;-77
2022/10/09 11:06:27;;;;;;;12.88;5.33;;;;;;;21.92;47.30;99594.78;1700711;84;20888;-77
2022/10/09 11:09:04;;;;;;;13.25;5.87;;;;;;;21.49;47.71;99588.92;1698320;84;20913;-75
2022/10/09 11:11:54;;;;;;;8.43;5.03;;;;;;;20.99;48.75;99596.86;1696241;83;20884;-75
2022/10/09 11:14:38;;;;;;;10.72;5.40;;;;;;;20.45;50.07;99596.11;1643384;86;21950;-77
2022/10/09 11:17:14;;;;;;;16.42;5.70;;;;;;;19.86;52.19;99595.53;1652983;86;20949;-77
2022/10/09 11:20:07;;;;;;;19.02;9.13;;;;;;;19.48;53.69;99596.56;1653403;86;21024;-78
2022/10/09 11:22:55;;;;;;;17.45;8.75;;;;;;;19.32;55.43;99591.94;1656127;85;21022;-75
2022/10/09 11:25:45;;;;;;;17.98;9.30;;;;;;;19.14;56.97;99598.59;1646072;86;21000;-76
2022/10/09 11:28:18;;;;;;;18.77;8.23;;;;;;;19.29;57.63;99589.09;1640925;85;21274;-76
2022/10/09 11:31:05;;;;;;;21.10;10.38;;;;;;;19.76;57.93;99592.22;1651086;86;21452;-76
2022/10/09 11:33:44;;;;;;;16.32;8.55;;;;;;;19.95;56.43;99590.49;1680317;84;21008;-77
2022/10/09 11:36:19;;;;;;;153.38;24.23;;;;;;;19.87;56.28;99604.91;1695528;84;20960;-78
2022/10/09 11:38:50;;;;;;;20.10;8.40;;;;;;;19.62;56.86;99619.89;1696018;84;20917;-76
2022/10/09 11:41:17;;;;;;;25.35;9.53;;;;;;;19.22;58.04;99611.23;1696323;84;22087;-75